createdAt,value
2022-08-01T00:02:15.375Z,101043.44
2022-08-01T00:07:17.582Z,101043.72
2022-08-01T00:12:19.663Z,101039.28
2022-08-01T00:17:21.817Z,101040.28
2022-08-01T00:22:23.719Z,101040.41
2022-08-01T00:27:25.605Z,101046.41
2022-08-01T00:32:27.750Z,101046.78
2022-08-01T00:37:29.794Z,101049.22
2022-08-01T00:42:31.575Z,101046.28
2022-08-01T00:47:33.361Z,101037.81
2022-08-01T00:52:36.254Z,101050.34
2022-08-01T00:58:02.285Z,101051.06
2022-08-01T01:03:00.510Z,101047.75
2022-08-01T01:08:13.909Z,101045.69
2022-08-01T01:13:21.750Z,101050.78
2022-08-01T01:18:39.057Z,101047.63
2022-08-01T01:24:08.798Z,101048.75
2022-08-01T01:29:22.255Z,101042.97
2022-08-01T01:34:25.680Z,101044.22
2022-08-01T01:39:30.897Z,101038.72
2022-08-01T01:44:33.643Z,101036.88
2022-08-01T01:49:35.990Z,101035.63
2022-08-01T01:54:42.304Z,101035.91
2022-08-01T01:59:45.869Z,101032.59
2022-08-01T02:04:49.784Z,101031.34
2022-08-01T02:09:52.813Z,101030.34
2022-08-01T02:14:57.211Z,101022.53
2022-08-01T02:19:59.687Z,101024.13
2022-08-01T02:25:07.467Z,101015.53
2022-08-01T02:30:12.305Z,101025.88
2022-08-01T02:35:24.979Z,101023.16
2022-08-01T02:40:33.892Z,101012.00
2022-08-01T02:45:38.764Z,101021.66
2022-08-01T02:50:44.539Z,101021.44
2022-08-01T02:55:48.726Z,101019.63
2022-08-01T03:00:51.059Z,101023.06
2022-08-01T03:05:55.083Z,101020.00
2022-08-01T03:11:00.153Z,101026.22
2022-08-01T03:16:03.469Z,101022.78
2022-08-01T03:21:07.868Z,101026.47
2022-08-01T03:26:10.875Z,101027.31
2022-08-01T03:31:15.236Z,101027.56
2022-08-01T03:36:21.229Z,101026.47
2022-08-01T03:41:24.997Z,101038.22
2022-08-01T03:46:33.998Z,101036.47
2022-08-01T03:51:38.330Z,101040.16
2022-08-01T03:56:43.149Z,101040.28
2022-08-01T04:01:47.451Z,101032.94
2022-08-01T04:06:55.169Z,101036.38
2022-08-01T04:11:57.251Z,101043.50
2022-08-01T04:16:59.494Z,101041.75
2022-08-01T04:22:01.870Z,101047.75
2022-08-01T04:27:07.286Z,101045.34
2022-08-01T04:32:14.024Z,101050.00
2022-08-01T04:37:19.764Z,101054.16
2022-08-01T04:42:26.056Z,101059.03
2022-08-01T04:47:33.186Z,101070.53
2022-08-01T04:52:36.998Z,101069.59
2022-08-01T04:57:41.799Z,101074.34
2022-08-01T05:02:44.031Z,101078.75
2022-08-01T05:07:46.000Z,101083.63
2022-08-01T05:12:48.233Z,101080.59
2022-08-01T05:17:50.513Z,101077.66
2022-08-01T05:22:52.506Z,101083.06
2022-08-01T05:27:54.562Z,101081.59
2022-08-01T05:32:56.753Z,101098.47
2022-08-01T05:37:59.549Z,101096.88
2022-08-01T05:43:02.091Z,101098.09
2022-08-01T05:48:04.383Z,101097.88
2022-08-01T05:53:06.423Z,101095.78
2022-08-01T05:58:08.458Z,101101.03
2022-08-01T06:03:15.545Z,101098.00
2022-08-01T06:08:17.279Z,101092.22
2022-08-01T06:13:20.599Z,101098.59
2022-08-01T06:18:22.463Z,101090.91
2022-08-01T06:23:32.816Z,101087.44
2022-08-01T06:28:34.965Z,101089.16
2022-08-01T06:33:36.971Z,101097.25
2022-08-01T06:38:39.254Z,101098.59
2022-08-01T06:43:41.260Z,101090.41
2022-08-01T06:48:43.865Z,101089.41
2022-08-01T06:53:45.731Z,101099.81
2022-08-01T06:58:47.522Z,101093.94
2022-08-01T07:03:53.091Z,101101.41
2022-08-01T07:08:56.989Z,101093.81
2022-08-01T07:13:59.566Z,101103.28
2022-08-01T07:19:01.500Z,101104.38
2022-08-01T07:24:12.666Z,101105.84
2022-08-01T07:29:16.006Z,101113.56
2022-08-01T07:34:18.135Z,101113.16
2022-08-01T07:39:20.379Z,101121.97
2022-08-01T07:44:22.332Z,101122.09
2022-08-01T07:49:24.339Z,101118.69
2022-08-01T07:54:33.772Z,101124.22
2022-08-01T07:59:36.201Z,101129.47
2022-08-01T08:04:38.233Z,101127.28
2022-08-01T08:09:40.443Z,101139.03
2022-08-01T08:14:42.590Z,101135.13
2022-08-01T08:19:45.608Z,101142.56
2022-08-01T08:24:47.444Z,101154.44
2022-08-01T08:29:49.450Z,101150.63
2022-08-01T08:34:51.560Z,101153.09
2022-08-01T08:39:53.454Z,101151.88
2022-08-01T08:44:56.577Z,101151.88
2022-08-01T08:49:59.237Z,101157.75
2022-08-01T08:55:01.115Z,101153.44
2022-08-01T09:00:03.065Z,101153.72
2022-08-01T09:05:05.300Z,101138.00
2022-08-01T09:10:08.741Z,101149.31
2022-08-01T09:15:10.712Z,101153.72
2022-08-01T09:20:24.392Z,101155.66
2022-08-01T09:25:29.599Z,101149.66
2022-08-01T09:30:38.810Z,101150.53
2022-08-01T09:35:45.613Z,101157.13
2022-08-01T09:40:47.429Z,101154.56
2022-08-01T09:45:53.375Z,101163.50
2022-08-01T09:51:03.953Z,101157.25
2022-08-01T09:56:11.981Z,101161.16
2022-08-01T10:01:13.760Z,101162.38
2022-08-01T10:06:24.990Z,101166.16
2022-08-01T10:11:36.089Z,101164.59
2022-08-01T10:16:39.468Z,101152.81
2022-08-01T10:21:47.585Z,101164.22
2022-08-01T10:27:09.178Z,101164.09
2022-08-01T10:32:11.636Z,101162.75
2022-08-01T10:37:14.395Z,101164.69
2022-08-01T10:42:18.856Z,101160.53
2022-08-01T10:47:50.611Z,101163.75
2022-08-01T10:53:24.437Z,101154.81
2022-08-01T10:58:42.708Z,101162.34
2022-08-01T11:04:08.424Z,101159.06
2022-08-01T11:09:16.522Z,101155.44
2022-08-01T11:14:26.150Z,101148.69
2022-08-01T11:20:07.788Z,101147.09
2022-08-01T11:25:09.756Z,101142.19
2022-08-01T11:30:15.266Z,101150.41
2022-08-01T11:35:22.247Z,101146.34
2022-08-01T11:40:29.584Z,101149.63
2022-08-01T11:45:48.706Z,101148.31
2022-08-01T11:50:55.326Z,101151.00
2022-08-01T11:55:58.506Z,101140.56
2022-08-01T12:01:00.920Z,101134.53
2022-08-01T12:06:03.265Z,101132.94
2022-08-01T12:11:07.179Z,101139.72
2022-08-01T12:16:10.984Z,101127.56
2022-08-01T12:21:13.067Z,101135.78
2022-08-01T12:26:30.475Z,101133.00
2022-08-01T12:31:37.058Z,101132.09
2022-08-01T12:36:39.714Z,101135.50
2022-08-01T12:41:44.977Z,101140.19
2022-08-01T12:46:47.056Z,101138.47
2022-08-01T12:51:57.440Z,101140.69
2022-08-01T12:56:59.747Z,101132.47
2022-08-01T13:02:09.905Z,101136.78
2022-08-01T13:07:12.438Z,101131.91
2022-08-01T13:12:14.563Z,101140.38
2022-08-01T13:17:34.245Z,101143.88
2022-08-01T13:22:38.494Z,101136.63
2022-08-01T13:27:40.617Z,101140.69
2022-08-01T13:32:59.855Z,101130.41
2022-08-01T13:38:01.735Z,101143.25
2022-08-01T13:43:03.917Z,101135.41
2022-08-01T13:48:12.841Z,101140.22
2022-08-01T13:53:22.135Z,101137.38
2022-08-01T13:58:24.236Z,101141.75
2022-08-01T14:03:33.670Z,101147.03
2022-08-01T14:08:35.991Z,101138.22
2022-08-01T14:13:39.599Z,101142.88
2022-08-01T14:18:49.055Z,101134.56
2022-08-01T14:23:51.134Z,101150.22
2022-08-01T14:28:53.622Z,101142.91
2022-08-01T14:33:55.414Z,101149.75
2022-08-01T14:39:00.131Z,101146.97
2022-08-01T14:44:03.367Z,101148.53
2022-08-01T14:49:05.229Z,101152.22
2022-08-01T14:54:07.384Z,101139.97
2022-08-01T14:59:21.037Z,101140.34
2022-08-01T15:04:23.854Z,101141.22
2022-08-01T15:09:26.130Z,101150.28
2022-08-01T15:14:46.777Z,101156.38
2022-08-01T15:19:56.369Z,101146.56
2022-08-01T15:25:01.176Z,101143.56
2022-08-01T15:30:04.488Z,101148.91
2022-08-01T15:35:07.594Z,101155.41
2022-08-01T15:40:10.184Z,101158.44
2022-08-01T15:45:37.410Z,101151.34
2022-08-01T15:50:38.837Z,101151.13
2022-08-01T15:55:40.916Z,101149.53
2022-08-01T16:00:43.253Z,101153.53
2022-08-01T16:05:45.474Z,101163.25
2022-08-01T16:10:47.770Z,101156.50
2022-08-01T16:15:50.367Z,101165.47
2022-08-01T16:20:52.379Z,101176.22
2022-08-01T16:25:54.899Z,101161.66
2022-08-01T16:31:15.356Z,101162.25
2022-08-01T16:36:19.447Z,101163.00
2022-08-01T16:41:21.841Z,101150.72
2022-08-01T16:46:25.644Z,101151.56
2022-08-01T16:51:27.877Z,101162.13
2022-08-01T16:56:34.802Z,101145.34
2022-08-01T17:01:59.949Z,101152.69
2022-08-01T17:06:58.874Z,101154.66
2022-08-01T17:12:00.851Z,101162.59
2022-08-01T17:17:02.652Z,101156.34
2022-08-01T17:22:04.716Z,101167.13
2022-08-01T17:27:12.236Z,101153.66
2022-08-01T17:32:14.950Z,101151.56
2022-08-01T17:37:17.019Z,101151.94
2022-08-01T17:42:19.259Z,101153.81
2022-08-01T17:47:48.093Z,101158.56
2022-08-01T17:52:46.274Z,101156.50
2022-08-01T17:57:48.144Z,101162.97
2022-08-01T18:02:50.232Z,101166.91
2022-08-01T18:08:01.630Z,101171.94
2022-08-01T18:13:04.388Z,101173.53
2022-08-01T18:18:07.753Z,101172.78
2022-08-01T18:23:11.417Z,101185.03
2022-08-01T18:28:22.406Z,101202.56
2022-08-01T18:33:33.520Z,101197.28
2022-08-01T18:38:37.385Z,101206.25
2022-08-01T18:43:45.640Z,101208.06
2022-08-01T18:48:48.788Z,101210.16
2022-08-01T18:53:52.594Z,101203.91
2022-08-01T18:58:55.151Z,101208.19
2022-08-01T19:03:57.096Z,101216.16
2022-08-01T19:09:02.552Z,101215.66
2022-08-01T19:14:04.713Z,101208.06
2022-08-01T19:19:09.777Z,101219.34
2022-08-01T19:24:23.602Z,101218.84
2022-08-01T19:29:35.914Z,101224.97
2022-08-01T19:35:06.000Z,101229.97
2022-08-01T19:40:08.354Z,101236.97
2022-08-01T19:45:11.070Z,101246.28
2022-08-01T19:50:13.836Z,101260.00
2022-08-01T19:55:16.048Z,101261.09
2022-08-01T20:00:24.040Z,101273.72
2022-08-01T20:05:30.700Z,101269.94
2022-08-01T20:10:32.761Z,101271.78
2022-08-01T20:15:34.999Z,101267.84
2022-08-01T20:20:37.718Z,101269.31
2022-08-01T20:25:42.394Z,101275.19
2022-08-01T20:30:44.194Z,101280.31
2022-08-01T20:35:53.708Z,101278.13
2022-08-01T20:41:00.067Z,101272.13
2022-08-01T20:46:02.150Z,101275.81
2022-08-01T20:51:16.602Z,101272.63
2022-08-01T20:56:46.014Z,101278.38
2022-08-01T21:02:02.096Z,101281.94
2022-08-01T21:07:24.297Z,101284.84
2022-08-01T21:12:43.763Z,101295.53
2022-08-01T21:17:55.899Z,101281.09
2022-08-01T21:23:00.744Z,101288.28
2022-08-01T21:28:04.238Z,101289.41
2022-08-01T21:33:11.566Z,101291.72
2022-08-01T21:38:16.386Z,101290.97
2022-08-01T21:43:18.916Z,101285.75
2022-08-01T21:48:26.793Z,101297.25
2022-08-01T21:53:54.241Z,101293.56
2022-08-01T21:59:24.243Z,101296.88
2022-08-01T22:04:38.233Z,101296.38
2022-08-01T22:09:44.977Z,101293.81
2022-08-01T22:14:49.636Z,101288.28
2022-08-01T22:19:55.365Z,101285.22
2022-08-01T22:24:58.446Z,101286.09
2022-08-01T22:30:05.602Z,101282.16
2022-08-01T22:35:10.807Z,101283.91
2022-08-01T22:40:14.959Z,101279.34
2022-08-01T22:45:26.133Z,101284.00
2022-08-01T22:50:36.399Z,101289.28
2022-08-01T22:55:59.548Z,101285.50
2022-08-01T23:01:09.738Z,101281.31
2022-08-01T23:06:13.876Z,101285.00
2022-08-01T23:11:15.872Z,101282.16
2022-08-01T23:16:18.719Z,101278.38
2022-08-01T23:21:20.595Z,101283.75
2022-08-01T23:26:23.654Z,101268.09
2022-08-01T23:32:00.560Z,101271.16
2022-08-01T23:36:49.224Z,101271.75
2022-08-01T23:41:57.486Z,101273.72
2022-08-01T23:47:01.110Z,101275.56
2022-08-01T23:52:04.417Z,101282.69
2022-08-01T23:57:06.485Z,101279.97
